sensor_id;sensor_type;location;lat;lon;timestamp;P1;durP1;ratioP1;P2;durP2;ratioP2
18973;SDS011;9621;48.690;9.466;2023-03-24T00:01:34;7.13;;;3.65;;
18973;SDS011;9621;48.690;9.466;2023-03-24T00:04:01;6.07;;;3.83;;
18973;SDS011;9621;48.690;9.466;2023-03-24T00:06:28;6.00;;;3.63;;
18973;SDS011;9621;48.690;9.466;2023-03-24T00:08:58;6.30;;;3.63;;
18973;SDS011;9621;48.690;9.466;2023-03-24T00:11:28;4.72;;;3.50;;
18973;SDS011;9621;48.690;9.466;2023-03-24T00:13:58;6.13;;;3.80;;
18973;SDS011;9621;48.690;9.466;2023-03-24T00:16:27;8.30;;;3.53;;
18973;SDS011;9621;48.690;9.466;2023-03-24T00:18:55;6.35;;;3.42;;
18973;SDS011;9621;48.690;9.466;2023-03-24T00:21:23;5.03;;;3.42;;
18973;SDS011;9621;48.690;9.466;2023-03-24T00:23:51;7.30;;;3.60;;
18973;SDS011;9621;48.690;9.466;2023-03-24T00:26:20;6.85;;;3.88;;
18973;SDS011;9621;48.690;9.466;2023-03-24T00:28:48;4.82;;;3.70;;
18973;SDS011;9621;48.690;9.466;2023-03-24T00:31:16;5.07;;;3.72;;
18973;SDS011;9621;48.690;9.466;2023-03-24T00:33:45;6.00;;;3.40;;
18973;SDS011;9621;48.690;9.466;2023-03-24T00:36:15;5.20;;;3.33;;
18973;SDS011;9621;48.690;9.466;2023-03-24T00:38:43;6.28;;;3.20;;
18973;SDS011;9621;48.690;9.466;2023-03-24T00:41:12;3.78;;;3.03;;
18973;SDS011;9621;48.690;9.466;2023-03-24T00:43:41;5.30;;;3.25;;
18973;SDS011;9621;48.690;9.466;2023-03-24T00:46:09;6.03;;;3.47;;
18973;SDS011;9621;48.690;9.466;2023-03-24T00:48:38;6.65;;;3.47;;
18973;SDS011;9621;48.690;9.466;2023-03-24T00:51:08;4.30;;;3.17;;
18973;SDS011;9621;48.690;9.466;2023-03-24T00:53:35;3.92;;;2.60;;
18973;SDS011;9621;48.690;9.466;2023-03-24T00:56:08;3.97;;;2.42;;
18973;SDS011;9621;48.690;9.466;2023-03-24T00:58:35;5.03;;;2.72;;
18973;SDS011;9621;48.690;9.466;2023-03-24T01:01:02;5.20;;;2.80;;
18973;SDS011;9621;48.690;9.466;2023-03-24T01:03:30;3.70;;;2.60;;
18973;SDS011;9621;48.690;9.466;2023-03-24T01:05:59;4.22;;;2.90;;
18973;SDS011;9621;48.690;9.466;2023-03-24T01:08:28;4.82;;;2.92;;
18973;SDS011;9621;48.690;9.466;2023-03-24T01:10:55;3.63;;;2.85;;
18973;SDS011;9621;48.690;9.466;2023-03-24T01:13:27;4.28;;;3.20;;
18973;SDS011;9621;48.690;9.466;2023-03-24T01:15:55;5.65;;;3.20;;
18973;SDS011;9621;48.690;9.466;2023-03-24T01:18:22;4.35;;;3.08;;
18973;SDS011;9621;48.690;9.466;2023-03-24T01:20:49;3.97;;;2.80;;
18973;SDS011;9621;48.690;9.466;2023-03-24T01:23:19;4.75;;;3.15;;
18973;SDS011;9621;48.690;9.466;2023-03-24T01:25:49;4.90;;;3.58;;
18973;SDS011;9621;48.690;9.466;2023-03-24T01:28:17;9.13;;;3.85;;
18973;SDS011;9621;48.690;9.466;2023-03-24T01:30:47;4.88;;;3.25;;
18973;SDS011;9621;48.690;9.466;2023-03-24T01:33:14;5.10;;;3.03;;
18973;SDS011;9621;48.690;9.466;2023-03-24T01:35:41;6.10;;;2.97;;
18973;SDS011;9621;48.690;9.466;2023-03-24T01:38:09;5.95;;;2.85;;
18973;SDS011;9621;48.690;9.466;2023-03-24T01:40:38;4.65;;;2.80;;
18973;SDS011;9621;48.690;9.466;2023-03-24T01:43:14;3.53;;;2.58;;
18973;SDS011;9621;48.690;9.466;2023-03-24T01:48:44;6.13;;;2.67;;
18973;SDS011;9621;48.690;9.466;2023-03-24T01:51:16;3.42;;;2.60;;
18973;SDS011;9621;48.690;9.466;2023-03-24T01:53:46;4.50;;;2.83;;
18973;SDS011;9621;48.690;9.466;2023-03-24T01:56:18;6.45;;;2.90;;
18973;SDS011;9621;48.690;9.466;2023-03-24T01:58:48;5.90;;;3.00;;
18973;SDS011;9621;48.690;9.466;2023-03-24T02:01:18;6.35;;;2.70;;
18973;SDS011;9621;48.690;9.466;2023-03-24T02:03:46;6.07;;;2.95;;
18973;SDS011;9621;48.690;9.466;2023-03-24T02:06:13;4.03;;;3.00;;
18973;SDS011;9621;48.690;9.466;2023-03-24T02:08:45;4.45;;;2.65;;
18973;SDS011;9621;48.690;9.466;2023-03-24T02:11:16;6.20;;;3.10;;
18973;SDS011;9621;48.690;9.466;2023-03-24T02:13:43;4.45;;;2.70;;
18973;SDS011;9621;48.690;9.466;2023-03-24T02:19:32;3.58;;;2.63;;
18973;SDS011;9621;48.690;9.466;2023-03-24T02:25:16;4.78;;;2.55;;
18973;SDS011;9621;48.690;9.466;2023-03-24T02:28:01;4.05;;;2.55;;
18973;SDS011;9621;48.690;9.466;2023-03-24T02:30:51;4.38;;;2.40;;
18973;SDS011;9621;48.690;9.466;2023-03-24T02:36:49;2.75;;;2.05;;
18973;SDS011;9621;48.690;9.466;2023-03-24T02:42:43;3.42;;;2.83;;
18973;SDS011;9621;48.690;9.466;2023-03-24T02:45:22;3.53;;;2.70;;
18973;SDS011;9621;48.690;9.466;2023-03-24T02:47:56;4.07;;;2.35;;
18973;SDS011;9621;48.690;9.466;2023-03-24T02:50:35;2.65;;;2.30;;
18973;SDS011;9621;48.690;9.466;2023-03-24T02:53:09;5.95;;;2.70;;
18973;SDS011;9621;48.690;9.466;2023-03-24T02:55:42;3.35;;;2.30;;
18973;SDS011;9621;48.690;9.466;2023-03-24T02:58:14;5.45;;;2.42;;
18973;SDS011;9621;48.690;9.466;2023-03-24T03:00:45;4.57;;;2.20;;
18973;SDS011;9621;48.690;9.466;2023-03-24T03:03:16;3.92;;;2.80;;
18973;SDS011;9621;48.690;9.466;2023-03-24T03:05:50;4.03;;;2.60;;
18973;SDS011;9621;48.690;9.466;2023-03-24T03:08:22;3.20;;;2.53;;
18973;SDS011;9621;48.690;9.466;2023-03-24T03:10:52;5.72;;;2.10;;
18973;SDS011;9621;48.690;9.466;2023-03-24T03:13:25;3.58;;;2.10;;
18973;SDS011;9621;48.690;9.466;2023-03-24T03:15:57;4.13;;;2.40;;
18973;SDS011;9621;48.690;9.466;2023-03-24T03:18:30;2.75;;;2.20;;
18973;SDS011;9621;48.690;9.466;2023-03-24T03:21:04;3.88;;;2.45;;
18973;SDS011;9621;48.690;9.466;2023-03-24T03:23:35;4.30;;;2.47;;
18973;SDS011;9621;48.690;9.466;2023-03-24T03:26:06;3.45;;;2.92;;
18973;SDS011;9621;48.690;9.466;2023-03-24T03:28:38;5.68;;;3.05;;
18973;SDS011;9621;48.690;9.466;2023-03-24T03:31:15;3.17;;;2.35;;
18973;SDS011;9621;48.690;9.466;2023-03-24T03:33:49;7.43;;;2.97;;
18973;SDS011;9621;48.690;9.466;2023-03-24T03:36:21;4.55;;;3.17;;
18973;SDS011;9621;48.690;9.466;2023-03-24T03:38:53;5.70;;;3.03;;
18973;SDS011;9621;48.690;9.466;2023-03-24T03:41:24;3.13;;;2.83;;
18973;SDS011;9621;48.690;9.466;2023-03-24T03:43:52;4.63;;;2.85;;
18973;SDS011;9621;48.690;9.466;2023-03-24T03:46:20;6.25;;;2.67;;
18973;SDS011;9621;48.690;9.466;2023-03-24T03:48:47;4.43;;;3.05;;
18973;SDS011;9621;48.690;9.466;2023-03-24T03:51:17;4.93;;;3.00;;
18973;SDS011;9621;48.690;9.466;2023-03-24T03:53:45;6.57;;;2.78;;
18973;SDS011;9621;48.690;9.466;2023-03-24T03:56:17;3.63;;;2.50;;
18973;SDS011;9621;48.690;9.466;2023-03-24T03:58:47;2.92;;;2.40;;
18973;SDS011;9621;48.690;9.466;2023-03-24T04:01:17;3.63;;;2.80;;
18973;SDS011;9621;48.690;9.466;2023-03-24T04:06:54;4.07;;;3.03;;
18973;SDS011;9621;48.690;9.466;2023-03-24T04:09:35;4.10;;;2.60;;
18973;SDS011;9621;48.690;9.466;2023-03-24T04:12:22;4.32;;;2.85;;
18973;SDS011;9621;48.690;9.466;2023-03-24T04:18:19;3.65;;;2.67;;
18973;SDS011;9621;48.690;9.466;2023-03-24T04:21:06;3.97;;;3.03;;
18973;SDS011;9621;48.690;9.466;2023-03-24T04:23:44;6.57;;;3.75;;
18973;SDS011;9621;48.690;9.466;2023-03-24T04:26:21;8.55;;;4.72;;
18973;SDS011;9621;48.690;9.466;2023-03-24T04:28:56;7.18;;;4.07;;
18973;SDS011;9621;48.690;9.466;2023-03-24T04:31:30;6.63;;;3.72;;
18973;SDS011;9621;48.690;9.466;2023-03-24T04:34:03;4.97;;;3.50;;
18973;SDS011;9621;48.690;9.466;2023-03-24T04:36:36;7.45;;;3.67;;
18973;SDS011;9621;48.690;9.466;2023-03-24T04:39:08;7.68;;;3.75;;
18973;SDS011;9621;48.690;9.466;2023-03-24T04:41:37;7.60;;;3.90;;
18973;SDS011;9621;48.690;9.466;2023-03-24T04:44:07;6.97;;;3.30;;
18973;SDS011;9621;48.690;9.466;2023-03-24T04:46:36;7.30;;;4.03;;
18973;SDS011;9621;48.690;9.466;2023-03-24T04:49:04;7.68;;;3.50;;
18973;SDS011;9621;48.690;9.466;2023-03-24T04:51:32;8.48;;;4.03;;
18973;SDS011;9621;48.690;9.466;2023-03-24T04:53:59;4.10;;;3.03;;
18973;SDS011;9621;48.690;9.466;2023-03-24T04:56:28;4.82;;;2.80;;
18973;SDS011;9621;48.690;9.466;2023-03-24T04:59:02;4.13;;;2.88;;
18973;SDS011;9621;48.690;9.466;2023-03-24T05:01:31;4.22;;;2.95;;
18973;SDS011;9621;48.690;9.466;2023-03-24T05:04:01;4.40;;;2.80;;
18973;SDS011;9621;48.690;9.466;2023-03-24T05:06:31;2.90;;;2.40;;
18973;SDS011;9621;48.690;9.466;2023-03-24T05:08:58;4.00;;;2.80;;
18973;SDS011;9621;48.690;9.466;2023-03-24T05:11:25;4.82;;;2.90;;
18973;SDS011;9621;48.690;9.466;2023-03-24T05:13:52;7.22;;;2.95;;
18973;SDS011;9621;48.690;9.466;2023-03-24T05:16:20;5.43;;;3.22;;
18973;SDS011;9621;48.690;9.466;2023-03-24T05:18:47;4.15;;;3.08;;
18973;SDS011;9621;48.690;9.466;2023-03-24T05:21:14;4.88;;;2.60;;
18973;SDS011;9621;48.690;9.466;2023-03-24T05:23:42;4.32;;;3.40;;
18973;SDS011;9621;48.690;9.466;2023-03-24T05:26:09;6.25;;;2.78;;
18973;SDS011;9621;48.690;9.466;2023-03-24T05:28:36;4.20;;;3.20;;
18973;SDS011;9621;48.690;9.466;2023-03-24T05:31:03;7.97;;;2.95;;
18973;SDS011;9621;48.690;9.466;2023-03-24T05:33:30;6.10;;;2.92;;
18973;SDS011;9621;48.690;9.466;2023-03-24T05:35:58;5.90;;;4.07;;
18973;SDS011;9621;48.690;9.466;2023-03-24T05:38:24;7.22;;;4.13;;
18973;SDS011;9621;48.690;9.466;2023-03-24T05:40:56;5.65;;;3.70;;
18973;SDS011;9621;48.690;9.466;2023-03-24T05:43:23;6.00;;;3.10;;
18973;SDS011;9621;48.690;9.466;2023-03-24T05:45:50;4.97;;;3.17;;
18973;SDS011;9621;48.690;9.466;2023-03-24T05:48:17;5.05;;;2.25;;
18973;SDS011;9621;48.690;9.466;2023-03-24T05:50:44;4.75;;;2.40;;
18973;SDS011;9621;48.690;9.466;2023-03-24T05:53:12;4.80;;;2.58;;
18973;SDS011;9621;48.690;9.466;2023-03-24T05:55:38;3.25;;;2.22;;
18973;SDS011;9621;48.690;9.466;2023-03-24T05:58:07;3.33;;;2.25;;
18973;SDS011;9621;48.690;9.466;2023-03-24T06:00:34;5.03;;;2.95;;
18973;SDS011;9621;48.690;9.466;2023-03-24T06:03:01;3.60;;;2.42;;
18973;SDS011;9621;48.690;9.466;2023-03-24T06:05:28;3.88;;;2.78;;
18973;SDS011;9621;48.690;9.466;2023-03-24T06:07:55;4.20;;;2.30;;
18973;SDS011;9621;48.690;9.466;2023-03-24T06:10:25;4.32;;;2.40;;
18973;SDS011;9621;48.690;9.466;2023-03-24T06:12:53;6.07;;;2.58;;
18973;SDS011;9621;48.690;9.466;2023-03-24T06:15:22;3.30;;;2.50;;
18973;SDS011;9621;48.690;9.466;2023-03-24T06:17:51;4.85;;;2.78;;
18973;SDS011;9621;48.690;9.466;2023-03-24T06:20:20;4.05;;;2.80;;
18973;SDS011;9621;48.690;9.466;2023-03-24T06:22:47;5.45;;;3.05;;
18973;SDS011;9621;48.690;9.466;2023-03-24T06:25:15;4.82;;;2.95;;
18973;SDS011;9621;48.690;9.466;2023-03-24T06:27:44;4.00;;;2.78;;
18973;SDS011;9621;48.690;9.466;2023-03-24T06:30:12;4.80;;;3.15;;
18973;SDS011;9621;48.690;9.466;2023-03-24T06:32:42;10.02;;;2.95;;
18973;SDS011;9621;48.690;9.466;2023-03-24T06:35:10;4.95;;;2.95;;
18973;SDS011;9621;48.690;9.466;2023-03-24T06:37:37;4.80;;;2.90;;
18973;SDS011;9621;48.690;9.466;2023-03-24T06:40:05;3.70;;;2.47;;
18973;SDS011;9621;48.690;9.466;2023-03-24T06:42:35;3.65;;;2.40;;
18973;SDS011;9621;48.690;9.466;2023-03-24T06:45:02;3.90;;;2.08;;
18973;SDS011;9621;48.690;9.466;2023-03-24T06:47:29;3.67;;;2.40;;
18973;SDS011;9621;48.690;9.466;2023-03-24T06:49:59;2.55;;;2.30;;
18973;SDS011;9621;48.690;9.466;2023-03-24T06:52:27;3.60;;;2.80;;
18973;SDS011;9621;48.690;9.466;2023-03-24T06:54:54;5.45;;;3.10;;
18973;SDS011;9621;48.690;9.466;2023-03-24T06:57:22;3.72;;;2.58;;
18973;SDS011;9621;48.690;9.466;2023-03-24T06:59:49;2.70;;;2.35;;
18973;SDS011;9621;48.690;9.466;2023-03-24T07:02:16;5.95;;;2.75;;
18973;SDS011;9621;48.690;9.466;2023-03-24T07:04:43;3.63;;;2.33;;
18973;SDS011;9621;48.690;9.466;2023-03-24T07:07:12;4.78;;;2.45;;
18973;SDS011;9621;48.690;9.466;2023-03-24T07:09:39;4.18;;;2.42;;
18973;SDS011;9621;48.690;9.466;2023-03-24T07:12:06;5.45;;;2.70;;
18973;SDS011;9621;48.690;9.466;2023-03-24T07:14:33;4.47;;;2.60;;
18973;SDS011;9621;48.690;9.466;2023-03-24T07:16:59;3.22;;;2.42;;
18973;SDS011;9621;48.690;9.466;2023-03-24T07:19:26;3.80;;;2.20;;
18973;SDS011;9621;48.690;9.466;2023-03-24T07:21:53;3.75;;;2.53;;
18973;SDS011;9621;48.690;9.466;2023-03-24T07:24:22;7.03;;;2.55;;
18973;SDS011;9621;48.690;9.466;2023-03-24T07:26:52;5.03;;;2.85;;
18973;SDS011;9621;48.690;9.466;2023-03-24T07:29:21;5.35;;;2.50;;
18973;SDS011;9621;48.690;9.466;2023-03-24T07:31:50;4.78;;;2.85;;
18973;SDS011;9621;48.690;9.466;2023-03-24T07:34:18;4.60;;;2.30;;
18973;SDS011;9621;48.690;9.466;2023-03-24T07:36:48;4.68;;;2.72;;
18973;SDS011;9621;48.690;9.466;2023-03-24T07:39:16;3.13;;;2.50;;
18973;SDS011;9621;48.690;9.466;2023-03-24T07:41:46;4.13;;;2.47;;
18973;SDS011;9621;48.690;9.466;2023-03-24T07:44:13;3.38;;;2.53;;
18973;SDS011;9621;48.690;9.466;2023-03-24T07:46:40;6.43;;;3.05;;
18973;SDS011;9621;48.690;9.466;2023-03-24T07:49:07;5.57;;;2.60;;
18973;SDS011;9621;48.690;9.466;2023-03-24T07:51:34;3.83;;;2.50;;
18973;SDS011;9621;48.690;9.466;2023-03-24T07:54:01;4.28;;;2.85;;
18973;SDS011;9621;48.690;9.466;2023-03-24T07:56:28;3.88;;;2.80;;
18973;SDS011;9621;48.690;9.466;2023-03-24T07:58:57;3.15;;;2.60;;
18973;SDS011;9621;48.690;9.466;2023-03-24T08:01:24;4.97;;;3.20;;
18973;SDS011;9621;48.690;9.466;2023-03-24T08:03:52;5.57;;;2.88;;
18973;SDS011;9621;48.690;9.466;2023-03-24T08:06:20;7.97;;;2.67;;
18973;SDS011;9621;48.690;9.466;2023-03-24T08:08:47;7.28;;;2.67;;
18973;SDS011;9621;48.690;9.466;2023-03-24T08:11:14;3.08;;;2.63;;
18973;SDS011;9621;48.690;9.466;2023-03-24T08:13:41;4.40;;;2.47;;
18973;SDS011;9621;48.690;9.466;2023-03-24T08:16:09;4.53;;;3.25;;
18973;SDS011;9621;48.690;9.466;2023-03-24T08:18:38;3.28;;;2.97;;
18973;SDS011;9621;48.690;9.466;2023-03-24T08:21:05;4.40;;;2.90;;
18973;SDS011;9621;48.690;9.466;2023-03-24T08:23:32;5.35;;;2.95;;
18973;SDS011;9621;48.690;9.466;2023-03-24T08:26:00;4.63;;;3.40;;
18973;SDS011;9621;48.690;9.466;2023-03-24T08:28:27;3.88;;;2.83;;
18973;SDS011;9621;48.690;9.466;2023-03-24T08:30:54;4.15;;;2.92;;
18973;SDS011;9621;48.690;9.466;2023-03-24T08:33:23;5.72;;;2.90;;
18973;SDS011;9621;48.690;9.466;2023-03-24T08:35:50;6.07;;;3.35;;
18973;SDS011;9621;48.690;9.466;2023-03-24T08:38:21;3.75;;;3.03;;
18973;SDS011;9621;48.690;9.466;2023-03-24T08:40:55;3.53;;;2.67;;
18973;SDS011;9621;48.690;9.466;2023-03-24T08:43:23;4.00;;;2.67;;
18973;SDS011;9621;48.690;9.466;2023-03-24T08:45:50;5.03;;;2.60;;
18973;SDS011;9621;48.690;9.466;2023-03-24T08:48:17;4.60;;;3.05;;
18973;SDS011;9621;48.690;9.466;2023-03-24T08:50:45;4.25;;;3.05;;
18973;SDS011;9621;48.690;9.466;2023-03-24T08:53:12;4.97;;;3.47;;
18973;SDS011;9621;48.690;9.466;2023-03-24T08:55:40;8.05;;;3.60;;
18973;SDS011;9621;48.690;9.466;2023-03-24T08:58:11;5.00;;;3.70;;
18973;SDS011;9621;48.690;9.466;2023-03-24T09:00:39;3.30;;;2.58;;
18973;SDS011;9621;48.690;9.466;2023-03-24T09:03:08;4.93;;;3.42;;
18973;SDS011;9621;48.690;9.466;2023-03-24T09:05:37;5.10;;;2.92;;
18973;SDS011;9621;48.690;9.466;2023-03-24T09:08:06;3.17;;;2.80;;
18973;SDS011;9621;48.690;9.466;2023-03-24T09:10:33;6.03;;;2.75;;
18973;SDS011;9621;48.690;9.466;2023-03-24T09:13:00;3.63;;;2.60;;
18973;SDS011;9621;48.690;9.466;2023-03-24T09:15:28;3.25;;;2.55;;
18973;SDS011;9621;48.690;9.466;2023-03-24T09:17:55;4.53;;;2.65;;
18973;SDS011;9621;48.690;9.466;2023-03-24T09:20:22;2.70;;;2.33;;
18973;SDS011;9621;48.690;9.466;2023-03-24T09:22:49;3.65;;;2.75;;
18973;SDS011;9621;48.690;9.466;2023-03-24T09:25:18;3.80;;;2.35;;
18973;SDS011;9621;48.690;9.466;2023-03-24T09:27:46;2.55;;;2.05;;
18973;SDS011;9621;48.690;9.466;2023-03-24T09:30:15;2.85;;;2.20;;
18973;SDS011;9621;48.690;9.466;2023-03-24T09:32:43;3.58;;;2.40;;
18973;SDS011;9621;48.690;9.466;2023-03-24T09:35:11;3.95;;;2.10;;
18973;SDS011;9621;48.690;9.466;2023-03-24T09:37:39;3.70;;;2.20;;
18973;SDS011;9621;48.690;9.466;2023-03-24T09:40:10;3.65;;;2.60;;
18973;SDS011;9621;48.690;9.466;2023-03-24T09:42:45;4.00;;;2.40;;
18973;SDS011;9621;48.690;9.466;2023-03-24T09:45:18;3.17;;;2.10;;
18973;SDS011;9621;48.690;9.466;2023-03-24T09:47:47;3.45;;;2.38;;
18973;SDS011;9621;48.690;9.466;2023-03-24T09:50:20;2.38;;;1.98;;
18973;SDS011;9621;48.690;9.466;2023-03-24T09:52:50;2.75;;;2.10;;
18973;SDS011;9621;48.690;9.466;2023-03-24T09:55:21;2.13;;;1.83;;
18973;SDS011;9621;48.690;9.466;2023-03-24T09:57:51;1.60;;;1.50;;
18973;SDS011;9621;48.690;9.466;2023-03-24T10:00:21;2.25;;;2.00;;
18973;SDS011;9621;48.690;9.466;2023-03-24T10:02:51;1.75;;;1.40;;
18973;SDS011;9621;48.690;9.466;2023-03-24T10:05:20;1.83;;;1.38;;
18973;SDS011;9621;48.690;9.466;2023-03-24T10:07:53;3.90;;;1.50;;
18973;SDS011;9621;48.690;9.466;2023-03-24T10:10:25;2.13;;;1.40;;
18973;SDS011;9621;48.690;9.466;2023-03-24T10:13:04;2.00;;;1.20;;
18973;SDS011;9621;48.690;9.466;2023-03-24T10:15:34;1.13;;;1.02;;
18973;SDS011;9621;48.690;9.466;2023-03-24T10:18:12;2.70;;;1.27;;
18973;SDS011;9621;48.690;9.466;2023-03-24T10:20:52;1.70;;;1.15;;
18973;SDS011;9621;48.690;9.466;2023-03-24T10:23:23;1.70;;;1.10;;
18973;SDS011;9621;48.690;9.466;2023-03-24T10:25:55;1.73;;;1.20;;
18973;SDS011;9621;48.690;9.466;2023-03-24T10:28:33;1.45;;;0.98;;
18973;SDS011;9621;48.690;9.466;2023-03-24T10:31:08;1.45;;;1.20;;
18973;SDS011;9621;48.690;9.466;2023-03-24T10:33:38;1.20;;;0.95;;
18973;SDS011;9621;48.690;9.466;2023-03-24T10:36:08;1.10;;;0.85;;
18973;SDS011;9621;48.690;9.466;2023-03-24T10:38:38;1.40;;;1.00;;
18973;SDS011;9621;48.690;9.466;2023-03-24T10:41:11;1.20;;;1.08;;
18973;SDS011;9621;48.690;9.466;2023-03-24T10:43:43;1.10;;;1.00;;
18973;SDS011;9621;48.690;9.466;2023-03-24T10:46:11;1.48;;;1.10;;
18973;SDS011;9621;48.690;9.466;2023-03-24T10:48:42;2.10;;;1.00;;
18973;SDS011;9621;48.690;9.466;2023-03-24T10:51:12;1.90;;;1.08;;
18973;SDS011;9621;48.690;9.466;2023-03-24T10:53:41;1.60;;;1.02;;
18973;SDS011;9621;48.690;9.466;2023-03-24T10:56:11;3.47;;;1.40;;
18973;SDS011;9621;48.690;9.466;2023-03-24T10:58:43;1.10;;;1.00;;
18973;SDS011;9621;48.690;9.466;2023-03-24T11:01:22;1.80;;;1.10;;
18973;SDS011;9621;48.690;9.466;2023-03-24T11:03:57;1.60;;;1.20;;
18973;SDS011;9621;48.690;9.466;2023-03-24T11:06:27;2.10;;;1.25;;
18973;SDS011;9621;48.690;9.466;2023-03-24T11:09:14;1.05;;;0.98;;
18973;SDS011;9621;48.690;9.466;2023-03-24T11:11:45;1.38;;;0.90;;
18973;SDS011;9621;48.690;9.466;2023-03-24T11:14:20;1.10;;;0.75;;
18973;SDS011;9621;48.690;9.466;2023-03-24T11:16:49;1.45;;;0.90;;
18973;SDS011;9621;48.690;9.466;2023-03-24T11:19:17;1.17;;;1.08;;
18973;SDS011;9621;48.690;9.466;2023-03-24T11:21:46;1.00;;;0.85;;
18973;SDS011;9621;48.690;9.466;2023-03-24T11:24:14;3.17;;;1.00;;
18973;SDS011;9621;48.690;9.466;2023-03-24T11:26:44;1.95;;;1.00;;
18973;SDS011;9621;48.690;9.466;2023-03-24T11:29:16;3.50;;;1.00;;
18973;SDS011;9621;48.690;9.466;2023-03-24T11:31:52;1.42;;;0.90;;
18973;SDS011;9621;48.690;9.466;2023-03-24T11:34:20;1.75;;;1.25;;
18973;SDS011;9621;48.690;9.466;2023-03-24T11:36:50;2.88;;;0.82;;
18973;SDS011;9621;48.690;9.466;2023-03-24T11:39:21;1.77;;;1.20;;
18973;SDS011;9621;48.690;9.466;2023-03-24T11:41:50;1.25;;;0.70;;
18973;SDS011;9621;48.690;9.466;2023-03-24T11:44:29;1.80;;;0.80;;
18973;SDS011;9621;48.690;9.466;2023-03-24T11:47:09;1.67;;;0.80;;
18973;SDS011;9621;48.690;9.466;2023-03-24T11:49:40;1.00;;;0.90;;
18973;SDS011;9621;48.690;9.466;2023-03-24T11:52:12;1.38;;;0.90;;
18973;SDS011;9621;48.690;9.466;2023-03-24T11:54:47;0.70;;;0.70;;
18973;SDS011;9621;48.690;9.466;2023-03-24T11:57:15;1.35;;;0.80;;
18973;SDS011;9621;48.690;9.466;2023-03-24T11:59:55;2.13;;;0.70;;
18973;SDS011;9621;48.690;9.466;2023-03-24T12:02:34;0.60;;;0.60;;
18973;SDS011;9621;48.690;9.466;2023-03-24T12:05:19;0.82;;;0.60;;
18973;SDS011;9621;48.690;9.466;2023-03-24T12:08:03;2.15;;;0.60;;
18973;SDS011;9621;48.690;9.466;2023-03-24T12:10:43;1.15;;;0.70;;
18973;SDS011;9621;48.690;9.466;2023-03-24T12:13:20;0.85;;;0.70;;
18973;SDS011;9621;48.690;9.466;2023-03-24T12:16:02;2.25;;;0.63;;
18973;SDS011;9621;48.690;9.466;2023-03-24T12:19:10;0.57;;;0.52;;
18973;SDS011;9621;48.690;9.466;2023-03-24T12:21:58;1.25;;;0.60;;
18973;SDS011;9621;48.690;9.466;2023-03-24T12:24:37;0.90;;;0.60;;
18973;SDS011;9621;48.690;9.466;2023-03-24T12:27:17;0.75;;;0.70;;
18973;SDS011;9621;48.690;9.466;2023-03-24T12:29:57;0.50;;;0.50;;
18973;SDS011;9621;48.690;9.466;2023-03-24T12:32:33;0.70;;;0.70;;
18973;SDS011;9621;48.690;9.466;2023-03-24T12:35:10;0.95;;;0.60;;
18973;SDS011;9621;48.690;9.466;2023-03-24T12:37:56;0.82;;;0.70;;
18973;SDS011;9621;48.690;9.466;2023-03-24T12:40:37;1.15;;;0.60;;
18973;SDS011;9621;48.690;9.466;2023-03-24T12:43:20;3.10;;;0.82;;
18973;SDS011;9621;48.690;9.466;2023-03-24T12:45:56;1.02;;;0.77;;
18973;SDS011;9621;48.690;9.466;2023-03-24T12:48:31;0.63;;;0.60;;
18973;SDS011;9621;48.690;9.466;2023-03-24T12:51:21;0.95;;;0.50;;
18973;SDS011;9621;48.690;9.466;2023-03-24T12:53:59;1.88;;;0.52;;
18973;SDS011;9621;48.690;9.466;2023-03-24T12:56:39;2.13;;;0.70;;
18973;SDS011;9621;48.690;9.466;2023-03-24T12:59:09;0.80;;;0.50;;
18973;SDS011;9621;48.690;9.466;2023-03-24T13:01:40;0.70;;;0.70;;
18973;SDS011;9621;48.690;9.466;2023-03-24T13:04:12;1.05;;;0.80;;
18973;SDS011;9621;48.690;9.466;2023-03-24T13:06:46;0.77;;;0.50;;
18973;SDS011;9621;48.690;9.466;2023-03-24T13:09:21;1.75;;;0.40;;
18973;SDS011;9621;48.690;9.466;2023-03-24T13:11:54;0.52;;;0.52;;
18973;SDS011;9621;48.690;9.466;2023-03-24T13:14:27;1.15;;;0.60;;
18973;SDS011;9621;48.690;9.466;2023-03-24T13:16:59;1.73;;;0.50;;
18973;SDS011;9621;48.690;9.466;2023-03-24T13:19:32;2.53;;;0.57;;
18973;SDS011;9621;48.690;9.466;2023-03-24T13:22:00;0.50;;;0.50;;
18973;SDS011;9621;48.690;9.466;2023-03-24T13:24:30;0.40;;;0.40;;
18973;SDS011;9621;48.690;9.466;2023-03-24T13:26:59;0.75;;;0.50;;
18973;SDS011;9621;48.690;9.466;2023-03-24T13:29:44;1.02;;;0.60;;
18973;SDS011;9621;48.690;9.466;2023-03-24T13:32:30;2.03;;;0.50;;
18973;SDS011;9621;48.690;9.466;2023-03-24T13:35:02;1.30;;;0.60;;
18973;SDS011;9621;48.690;9.466;2023-03-24T13:37:37;0.55;;;0.55;;
18973;SDS011;9621;48.690;9.466;2023-03-24T13:40:08;0.60;;;0.57;;
18973;SDS011;9621;48.690;9.466;2023-03-24T13:42:44;2.17;;;0.65;;
18973;SDS011;9621;48.690;9.466;2023-03-24T13:45:24;0.70;;;0.47;;
18973;SDS011;9621;48.690;9.466;2023-03-24T13:48:21;0.50;;;0.50;;
18973;SDS011;9621;48.690;9.466;2023-03-24T13:50:56;1.02;;;0.50;;
18973;SDS011;9621;48.690;9.466;2023-03-24T13:53:29;1.48;;;0.60;;
18973;SDS011;9621;48.690;9.466;2023-03-24T13:56:01;2.38;;;0.55;;
18973;SDS011;9621;48.690;9.466;2023-03-24T13:58:44;0.50;;;0.40;;
18973;SDS011;9621;48.690;9.466;2023-03-24T14:01:17;0.80;;;0.52;;
18973;SDS011;9621;48.690;9.466;2023-03-24T14:06:55;0.40;;;0.40;;
18973;SDS011;9621;48.690;9.466;2023-03-24T14:09:23;0.50;;;0.50;;
18973;SDS011;9621;48.690;9.466;2023-03-24T14:12:06;1.95;;;0.65;;
18973;SDS011;9621;48.690;9.466;2023-03-24T14:17:42;1.30;;;0.60;;
18973;SDS011;9621;48.690;9.466;2023-03-24T14:20:12;0.40;;;0.40;;
18973;SDS011;9621;48.690;9.466;2023-03-24T14:22:53;1.13;;;0.60;;
18973;SDS011;9621;48.690;9.466;2023-03-24T14:25:22;1.75;;;0.50;;
18973;SDS011;9621;48.690;9.466;2023-03-24T14:27:52;0.40;;;0.40;;
18973;SDS011;9621;48.690;9.466;2023-03-24T14:30:20;2.58;;;0.50;;
18973;SDS011;9621;48.690;9.466;2023-03-24T14:32:51;1.50;;;0.70;;
18973;SDS011;9621;48.690;9.466;2023-03-24T14:35:24;0.88;;;0.60;;
18973;SDS011;9621;48.690;9.466;2023-03-24T14:37:58;0.98;;;0.50;;
18973;SDS011;9621;48.690;9.466;2023-03-24T14:40:28;0.80;;;0.60;;
18973;SDS011;9621;48.690;9.466;2023-03-24T14:43:04;0.50;;;0.50;;
18973;SDS011;9621;48.690;9.466;2023-03-24T14:48:30;1.83;;;0.60;;
18973;SDS011;9621;48.690;9.466;2023-03-24T14:54:01;0.50;;;0.50;;
18973;SDS011;9621;48.690;9.466;2023-03-24T14:56:32;6.20;;;0.60;;
18973;SDS011;9621;48.690;9.466;2023-03-24T14:59:01;0.75;;;0.50;;
18973;SDS011;9621;48.690;9.466;2023-03-24T15:01:34;0.70;;;0.52;;
18973;SDS011;9621;48.690;9.466;2023-03-24T15:04:03;0.75;;;0.50;;
18973;SDS011;9621;48.690;9.466;2023-03-24T15:06:31;0.85;;;0.60;;
18973;SDS011;9621;48.690;9.466;2023-03-24T15:08:59;0.68;;;0.50;;
18973;SDS011;9621;48.690;9.466;2023-03-24T15:11:31;1.52;;;0.60;;
18973;SDS011;9621;48.690;9.466;2023-03-24T15:14:00;1.02;;;0.52;;
18973;SDS011;9621;48.690;9.466;2023-03-24T15:16:29;1.95;;;0.50;;
18973;SDS011;9621;48.690;9.466;2023-03-24T15:18:59;0.43;;;0.43;;
18973;SDS011;9621;48.690;9.466;2023-03-24T15:21:31;0.75;;;0.70;;
18973;SDS011;9621;48.690;9.466;2023-03-24T15:24:02;0.60;;;0.52;;
18973;SDS011;9621;48.690;9.466;2023-03-24T15:26:51;2.45;;;0.50;;
18973;SDS011;9621;48.690;9.466;2023-03-24T15:29:19;1.00;;;0.70;;
18973;SDS011;9621;48.690;9.466;2023-03-24T15:31:48;0.82;;;0.50;;
18973;SDS011;9621;48.690;9.466;2023-03-24T15:34:23;0.52;;;0.50;;
18973;SDS011;9621;48.690;9.466;2023-03-24T15:36:52;2.92;;;0.60;;
18973;SDS011;9621;48.690;9.466;2023-03-24T15:39:24;0.52;;;0.52;;
18973;SDS011;9621;48.690;9.466;2023-03-24T15:41:53;1.20;;;0.65;;
18973;SDS011;9621;48.690;9.466;2023-03-24T15:44:20;0.60;;;0.60;;
18973;SDS011;9621;48.690;9.466;2023-03-24T15:46:53;0.68;;;0.60;;
18973;SDS011;9621;48.690;9.466;2023-03-24T15:49:25;0.75;;;0.60;;
18973;SDS011;9621;48.690;9.466;2023-03-24T15:51:56;1.15;;;0.70;;
18973;SDS011;9621;48.690;9.466;2023-03-24T15:54:25;0.60;;;0.55;;
18973;SDS011;9621;48.690;9.466;2023-03-24T15:59:43;0.70;;;0.60;;
18973;SDS011;9621;48.690;9.466;2023-03-24T16:02:14;0.77;;;0.70;;